sensor_id;sensor_type;location;lat;lon;timestamp;pressure;altitude;pressure_sealevel;temperature;humidity
26657;BME280;14279;50.010;8.260;2023-04-19T00:00:52;101251.22;;;11.81;68.35
26657;BME280;14279;50.010;8.260;2023-04-19T00:03:17;101250.09;;;11.88;67.97
26657;BME280;14279;50.010;8.260;2023-04-19T00:05:42;101263.56;;;12.01;67.90
26657;BME280;14279;50.010;8.260;2023-04-19T00:08:08;101256.94;;;11.67;68.59
26657;BME280;14279;50.010;8.260;2023-04-19T00:10:34;101263.34;;;11.82;68.25
26657;BME280;14279;50.010;8.260;2023-04-19T00:13:04;101250.75;;;11.69;68.88
26657;BME280;14279;50.010;8.260;2023-04-19T00:15:29;101257.00;;;11.89;68.07
26657;BME280;14279;50.010;8.260;2023-04-19T00:17:54;101243.06;;;11.66;68.08
26657;BME280;14279;50.010;8.260;2023-04-19T00:20:20;101257.13;;;11.86;67.96
26657;BME280;14279;50.010;8.260;2023-04-19T00:22:45;101243.97;;;11.89;67.73
26657;BME280;14279;50.010;8.260;2023-04-19T00:25:11;101254.00;;;11.76;67.86
26657;BME280;14279;50.010;8.260;2023-04-19T00:27:36;101246.31;;;11.95;67.56
26657;BME280;14279;50.010;8.260;2023-04-19T00:30:01;101245.03;;;11.83;67.84
26657;BME280;14279;50.010;8.260;2023-04-19T00:32:27;101240.72;;;11.82;67.88
26657;BME280;14279;50.010;8.260;2023-04-19T00:34:52;101243.06;;;11.90;67.81
26657;BME280;14279;50.010;8.260;2023-04-19T00:37:17;101249.41;;;11.83;67.80
26657;BME280;14279;50.010;8.260;2023-04-19T00:39:42;101248.13;;;11.93;67.75
26657;BME280;14279;50.010;8.260;2023-04-19T00:42:08;101241.47;;;11.86;67.83
26657;BME280;14279;50.010;8.260;2023-04-19T00:44:33;101239.34;;;11.96;67.83
26657;BME280;14279;50.010;8.260;2023-04-19T00:46:59;101238.75;;;12.13;67.21
26657;BME280;14279;50.010;8.260;2023-04-19T00:49:25;101236.19;;;12.11;66.96
26657;BME280;14279;50.010;8.260;2023-04-19T00:51:50;101228.16;;;12.16;67.09
26657;BME280;14279;50.010;8.260;2023-04-19T00:54:17;101235.47;;;12.08;67.00
26657;BME280;14279;50.010;8.260;2023-04-19T00:56:44;101224.59;;;12.18;66.86
26657;BME280;14279;50.010;8.260;2023-04-19T00:59:09;101235.56;;;12.05;67.35
26657;BME280;14279;50.010;8.260;2023-04-19T01:01:35;101227.16;;;11.96;67.30
26657;BME280;14279;50.010;8.260;2023-04-19T01:04:02;101225.44;;;12.19;66.79
26657;BME280;14279;50.010;8.260;2023-04-19T01:06:29;101222.59;;;12.03;67.18
26657;BME280;14279;50.010;8.260;2023-04-19T01:08:55;101225.97;;;11.81;68.20
26657;BME280;14279;50.010;8.260;2023-04-19T01:11:22;101218.41;;;11.99;67.97
26657;BME280;14279;50.010;8.260;2023-04-19T01:13:47;101226.13;;;12.02;67.71
26657;BME280;14279;50.010;8.260;2023-04-19T01:16:12;101211.69;;;11.92;68.22
26657;BME280;14279;50.010;8.260;2023-04-19T01:18:38;101214.47;;;11.87;68.38
26657;BME280;14279;50.010;8.260;2023-04-19T01:21:05;101221.03;;;11.73;69.10
26657;BME280;14279;50.010;8.260;2023-04-19T01:23:31;101213.38;;;11.93;68.67
26657;BME280;14279;50.010;8.260;2023-04-19T01:25:56;101213.25;;;11.96;68.03
26657;BME280;14279;50.010;8.260;2023-04-19T01:28:21;101208.09;;;11.94;68.12
26657;BME280;14279;50.010;8.260;2023-04-19T01:30:47;101205.47;;;12.18;67.58
26657;BME280;14279;50.010;8.260;2023-04-19T01:33:15;101205.19;;;12.26;67.38
26657;BME280;14279;50.010;8.260;2023-04-19T01:35:40;101201.94;;;12.19;67.67
26657;BME280;14279;50.010;8.260;2023-04-19T01:38:06;101204.75;;;12.14;67.82
26657;BME280;14279;50.010;8.260;2023-04-19T01:40:31;101202.25;;;12.11;67.87
26657;BME280;14279;50.010;8.260;2023-04-19T01:42:56;101194.31;;;12.14;67.57
26657;BME280;14279;50.010;8.260;2023-04-19T01:45:22;101190.56;;;12.22;67.53
26657;BME280;14279;50.010;8.260;2023-04-19T01:47:47;101192.06;;;12.27;67.27
26657;BME280;14279;50.010;8.260;2023-04-19T01:50:12;101186.22;;;12.43;66.82
26657;BME280;14279;50.010;8.260;2023-04-19T01:52:37;101195.81;;;12.20;67.62
26657;BME280;14279;50.010;8.260;2023-04-19T01:55:03;101190.34;;;12.26;67.69
26657;BME280;14279;50.010;8.260;2023-04-19T01:57:28;101188.19;;;12.38;66.99
26657;BME280;14279;50.010;8.260;2023-04-19T01:59:53;101184.66;;;12.16;67.95
26657;BME280;14279;50.010;8.260;2023-04-19T02:02:19;101186.00;;;12.05;68.38
26657;BME280;14279;50.010;8.260;2023-04-19T02:04:44;101187.19;;;12.18;68.33
26657;BME280;14279;50.010;8.260;2023-04-19T02:07:09;101183.16;;;12.11;68.32
26657;BME280;14279;50.010;8.260;2023-04-19T02:09:36;101175.84;;;12.19;68.32
26657;BME280;14279;50.010;8.260;2023-04-19T02:12:02;101178.03;;;12.08;68.42
26657;BME280;14279;50.010;8.260;2023-04-19T02:14:27;101172.16;;;12.02;68.72
26657;BME280;14279;50.010;8.260;2023-04-19T02:16:53;101168.28;;;12.13;68.60
26657;BME280;14279;50.010;8.260;2023-04-19T02:19:18;101165.78;;;12.10;68.15
26657;BME280;14279;50.010;8.260;2023-04-19T02:21:43;101165.53;;;12.16;67.99
26657;BME280;14279;50.010;8.260;2023-04-19T02:24:08;101168.09;;;12.17;68.23
26657;BME280;14279;50.010;8.260;2023-04-19T02:26:34;101165.59;;;12.14;67.89
26657;BME280;14279;50.010;8.260;2023-04-19T02:28:59;101163.00;;;11.91;68.72
26657;BME280;14279;50.010;8.260;2023-04-19T02:31:24;101160.81;;;11.80;69.36
26657;BME280;14279;50.010;8.260;2023-04-19T02:33:50;101170.03;;;11.88;69.38
26657;BME280;14279;50.010;8.260;2023-04-19T02:36:15;101159.84;;;11.82;69.61
26657;BME280;14279;50.010;8.260;2023-04-19T02:38:40;101162.94;;;11.92;69.20
26657;BME280;14279;50.010;8.260;2023-04-19T02:41:05;101156.41;;;12.04;68.57
26657;BME280;14279;50.010;8.260;2023-04-19T02:43:31;101165.50;;;11.94;69.10
26657;BME280;14279;50.010;8.260;2023-04-19T02:45:56;101153.47;;;11.90;69.37
26657;BME280;14279;50.010;8.260;2023-04-19T02:48:22;101157.06;;;11.87;69.27
26657;BME280;14279;50.010;8.260;2023-04-19T02:50:47;101147.97;;;11.97;69.19
26657;BME280;14279;50.010;8.260;2023-04-19T02:53:12;101156.22;;;11.86;69.03
26657;BME280;14279;50.010;8.260;2023-04-19T02:55:37;101146.22;;;11.98;68.85
26657;BME280;14279;50.010;8.260;2023-04-19T02:58:03;101146.84;;;12.05;68.64
26657;BME280;14279;50.010;8.260;2023-04-19T03:00:28;101144.44;;;11.98;68.24
26657;BME280;14279;50.010;8.260;2023-04-19T03:02:54;101145.47;;;11.94;68.58
26657;BME280;14279;50.010;8.260;2023-04-19T03:05:20;101146.25;;;11.96;68.91
26657;BME280;14279;50.010;8.260;2023-04-19T03:07:45;101143.75;;;11.93;69.00
26657;BME280;14279;50.010;8.260;2023-04-19T03:10:11;101137.19;;;12.07;68.04
26657;BME280;14279;50.010;8.260;2023-04-19T03:12:36;101135.81;;;11.96;68.81
26657;BME280;14279;50.010;8.260;2023-04-19T03:15:01;101135.09;;;11.93;69.13
26657;BME280;14279;50.010;8.260;2023-04-19T03:17:27;101130.91;;;11.88;69.11
26657;BME280;14279;50.010;8.260;2023-04-19T03:19:52;101131.91;;;12.08;68.36
26657;BME280;14279;50.010;8.260;2023-04-19T03:22:18;101126.09;;;12.01;68.68
26657;BME280;14279;50.010;8.260;2023-04-19T03:24:43;101130.59;;;11.96;68.65
26657;BME280;14279;50.010;8.260;2023-04-19T03:27:08;101125.50;;;11.93;68.81
26657;BME280;14279;50.010;8.260;2023-04-19T03:29:33;101124.19;;;12.05;68.73
26657;BME280;14279;50.010;8.260;2023-04-19T03:31:59;101121.88;;;11.97;68.83
26657;BME280;14279;50.010;8.260;2023-04-19T03:34:24;101124.59;;;11.94;68.74
26657;BME280;14279;50.010;8.260;2023-04-19T03:36:49;101124.47;;;11.99;68.67
26657;BME280;14279;50.010;8.260;2023-04-19T03:39:15;101124.00;;;11.65;70.20
26657;BME280;14279;50.010;8.260;2023-04-19T03:41:40;101124.97;;;11.85;69.32
26657;BME280;14279;50.010;8.260;2023-04-19T03:44:05;101126.47;;;11.91;69.42
26657;BME280;14279;50.010;8.260;2023-04-19T03:46:30;101116.97;;;11.90;69.25
26657;BME280;14279;50.010;8.260;2023-04-19T03:48:56;101125.78;;;11.87;69.74
26657;BME280;14279;50.010;8.260;2023-04-19T03:51:21;101116.16;;;11.87;69.55
26657;BME280;14279;50.010;8.260;2023-04-19T03:53:47;101117.97;;;11.85;69.89
26657;BME280;14279;50.010;8.260;2023-04-19T03:56:12;101110.13;;;11.87;69.50
26657;BME280;14279;50.010;8.260;2023-04-19T03:58:37;101109.38;;;11.83;69.96
26657;BME280;14279;50.010;8.260;2023-04-19T04:01:02;101110.28;;;11.82;69.79
26657;BME280;14279;50.010;8.260;2023-04-19T04:03:28;101114.06;;;11.75;69.73
26657;BME280;14279;50.010;8.260;2023-04-19T04:05:53;101116.50;;;11.56;70.63
26657;BME280;14279;50.010;8.260;2023-04-19T04:08:18;101116.41;;;11.59;70.21
26657;BME280;14279;50.010;8.260;2023-04-19T04:10:44;101116.91;;;11.69;70.18
26657;BME280;14279;50.010;8.260;2023-04-19T04:13:09;101116.97;;;11.67;70.18
26657;BME280;14279;50.010;8.260;2023-04-19T04:15:34;101109.19;;;11.66;70.32
26657;BME280;14279;50.010;8.260;2023-04-19T04:18:00;101113.84;;;11.57;70.78
26657;BME280;14279;50.010;8.260;2023-04-19T04:20:25;101116.22;;;11.64;70.67
26657;BME280;14279;50.010;8.260;2023-04-19T04:22:50;101117.34;;;11.56;70.60
26657;BME280;14279;50.010;8.260;2023-04-19T04:25:16;101122.53;;;11.58;70.89
26657;BME280;14279;50.010;8.260;2023-04-19T04:27:41;101127.50;;;11.64;70.77
26657;BME280;14279;50.010;8.260;2023-04-19T04:30:08;101119.84;;;11.60;70.75
26657;BME280;14279;50.010;8.260;2023-04-19T04:32:34;101129.63;;;11.54;70.83
26657;BME280;14279;50.010;8.260;2023-04-19T04:35:03;101129.78;;;11.50;71.12
26657;BME280;14279;50.010;8.260;2023-04-19T04:37:30;101132.47;;;11.48;71.40
26657;BME280;14279;50.010;8.260;2023-04-19T04:39:58;101133.84;;;11.57;70.66
26657;BME280;14279;50.010;8.260;2023-04-19T04:42:23;101135.50;;;11.60;71.07
26657;BME280;14279;50.010;8.260;2023-04-19T04:44:49;101135.38;;;11.63;71.46
26657;BME280;14279;50.010;8.260;2023-04-19T04:47:15;101136.16;;;11.65;71.23
26657;BME280;14279;50.010;8.260;2023-04-19T04:49:40;101132.66;;;11.66;71.10
26657;BME280;14279;50.010;8.260;2023-04-19T04:52:14;101135.56;;;11.58;71.45
26657;BME280;14279;50.010;8.260;2023-04-19T04:54:40;101135.44;;;11.61;71.65
26657;BME280;14279;50.010;8.260;2023-04-19T04:57:05;101134.97;;;11.73;71.38
26657;BME280;14279;50.010;8.260;2023-04-19T04:59:30;101141.28;;;11.68;71.68
26657;BME280;14279;50.010;8.260;2023-04-19T05:01:55;101139.97;;;11.56;72.68
26657;BME280;14279;50.010;8.260;2023-04-19T05:04:21;101137.47;;;11.77;71.97
26657;BME280;14279;50.010;8.260;2023-04-19T05:06:46;101136.00;;;11.92;71.44
26657;BME280;14279;50.010;8.260;2023-04-19T05:09:11;101123.09;;;11.88;71.42
26657;BME280;14279;50.010;8.260;2023-04-19T05:11:36;101125.66;;;12.12;70.49
26657;BME280;14279;50.010;8.260;2023-04-19T05:14:02;101122.34;;;12.09;70.80
26657;BME280;14279;50.010;8.260;2023-04-19T05:16:28;101121.94;;;11.96;71.26
26657;BME280;14279;50.010;8.260;2023-04-19T05:18:53;101125.50;;;11.93;72.09
26657;BME280;14279;50.010;8.260;2023-04-19T05:21:18;101122.56;;;12.02;72.12
26657;BME280;14279;50.010;8.260;2023-04-19T05:23:43;101115.75;;;11.98;71.84
26657;BME280;14279;50.010;8.260;2023-04-19T05:26:09;101122.66;;;11.77;73.04
26657;BME280;14279;50.010;8.260;2023-04-19T05:28:39;101115.50;;;11.82;72.87
26657;BME280;14279;50.010;8.260;2023-04-19T05:31:05;101110.63;;;11.95;72.39
26657;BME280;14279;50.010;8.260;2023-04-19T05:33:31;101115.50;;;11.82;73.26
26657;BME280;14279;50.010;8.260;2023-04-19T05:35:56;101114.31;;;11.91;72.59
26657;BME280;14279;50.010;8.260;2023-04-19T05:38:22;101108.88;;;11.73;73.40
26657;BME280;14279;50.010;8.260;2023-04-19T05:40:47;101113.50;;;11.89;72.84
26657;BME280;14279;50.010;8.260;2023-04-19T05:43:12;101114.81;;;12.01;72.31
26657;BME280;14279;50.010;8.260;2023-04-19T05:45:37;101109.81;;;11.95;72.56
26657;BME280;14279;50.010;8.260;2023-04-19T05:48:03;101111.28;;;12.02;72.08
26657;BME280;14279;50.010;8.260;2023-04-19T05:50:28;101110.91;;;12.11;71.37
26657;BME280;14279;50.010;8.260;2023-04-19T05:52:54;101111.50;;;12.18;71.32
26657;BME280;14279;50.010;8.260;2023-04-19T05:55:19;101107.97;;;12.19;71.49
26657;BME280;14279;50.010;8.260;2023-04-19T05:57:44;101114.28;;;12.36;70.54
26657;BME280;14279;50.010;8.260;2023-04-19T06:00:10;101117.81;;;12.12;71.04
26657;BME280;14279;50.010;8.260;2023-04-19T06:02:36;101112.84;;;12.28;70.21
26657;BME280;14279;50.010;8.260;2023-04-19T06:05:01;101111.78;;;12.32;70.17
26657;BME280;14279;50.010;8.260;2023-04-19T06:07:29;101109.56;;;12.23;70.15
26657;BME280;14279;50.010;8.260;2023-04-19T06:09:54;101103.97;;;12.32;69.66
26657;BME280;14279;50.010;8.260;2023-04-19T06:12:20;101108.03;;;12.60;68.62
26657;BME280;14279;50.010;8.260;2023-04-19T06:14:45;101105.56;;;12.76;68.04
26657;BME280;14279;50.010;8.260;2023-04-19T06:17:10;101110.75;;;12.78;67.94
26657;BME280;14279;50.010;8.260;2023-04-19T06:19:36;101108.47;;;12.70;68.65
26657;BME280;14279;50.010;8.260;2023-04-19T06:22:01;101119.28;;;12.82;68.37
26657;BME280;14279;50.010;8.260;2023-04-19T06:24:26;101112.31;;;12.82;68.37
26657;BME280;14279;50.010;8.260;2023-04-19T06:26:51;101115.59;;;12.87;68.26
26657;BME280;14279;50.010;8.260;2023-04-19T06:29:17;101117.31;;;13.07;67.84
26657;BME280;14279;50.010;8.260;2023-04-19T06:31:45;101117.16;;;13.11;67.16
26657;BME280;14279;50.010;8.260;2023-04-19T06:34:10;101117.78;;;12.97;67.21
26657;BME280;14279;50.010;8.260;2023-04-19T06:36:36;101113.19;;;13.02;66.70
26657;BME280;14279;50.010;8.260;2023-04-19T06:39:01;101118.47;;;12.60;66.96
26657;BME280;14279;50.010;8.260;2023-04-19T06:41:26;101122.56;;;12.87;66.23
26657;BME280;14279;50.010;8.260;2023-04-19T06:43:51;101122.00;;;12.80;66.12
26657;BME280;14279;50.010;8.260;2023-04-19T06:46:17;101118.78;;;12.94;65.75
26657;BME280;14279;50.010;8.260;2023-04-19T06:48:42;101121.31;;;12.96;66.29
26657;BME280;14279;50.010;8.260;2023-04-19T06:51:07;101115.88;;;13.00;65.51
26657;BME280;14279;50.010;8.260;2023-04-19T06:53:33;101116.44;;;12.88;65.35
26657;BME280;14279;50.010;8.260;2023-04-19T06:56:00;101116.16;;;12.94;64.45
26657;BME280;14279;50.010;8.260;2023-04-19T06:58:27;101119.88;;;12.88;64.70
26657;BME280;14279;50.010;8.260;2023-04-19T07:00:53;101118.34;;;12.84;64.40
26657;BME280;14279;50.010;8.260;2023-04-19T07:03:18;101120.56;;;13.13;63.78
26657;BME280;14279;50.010;8.260;2023-04-19T07:05:44;101121.41;;;13.13;63.90
26657;BME280;14279;50.010;8.260;2023-04-19T07:08:09;101119.25;;;12.83;63.66
26657;BME280;14279;50.010;8.260;2023-04-19T07:10:38;101120.75;;;12.47;63.79
26657;BME280;14279;50.010;8.260;2023-04-19T07:13:03;101115.97;;;12.37;64.17
26657;BME280;14279;50.010;8.260;2023-04-19T07:15:28;101119.84;;;12.69;63.55
26657;BME280;14279;50.010;8.260;2023-04-19T07:17:54;101114.41;;;12.74;63.91
26657;BME280;14279;50.010;8.260;2023-04-19T07:20:19;101115.53;;;12.47;63.10
26657;BME280;14279;50.010;8.260;2023-04-19T07:22:45;101115.53;;;12.68;63.46
26657;BME280;14279;50.010;8.260;2023-04-19T07:25:11;101112.59;;;12.76;62.89
26657;BME280;14279;50.010;8.260;2023-04-19T07:27:36;101114.50;;;12.72;62.65
26657;BME280;14279;50.010;8.260;2023-04-19T07:30:01;101109.84;;;12.58;62.33
26657;BME280;14279;50.010;8.260;2023-04-19T07:32:26;101111.94;;;12.71;61.78
26657;BME280;14279;50.010;8.260;2023-04-19T07:34:51;101110.19;;;12.90;61.12
26657;BME280;14279;50.010;8.260;2023-04-19T07:54:42;101102.75;;;13.02;59.18
26657;BME280;14279;50.010;8.260;2023-04-19T08:00:28;101091.72;;;12.95;58.29
26657;BME280;14279;50.010;8.260;2023-04-19T08:02:54;101082.84;;;12.99;57.91
26657;BME280;14279;50.010;8.260;2023-04-19T08:05:21;101088.34;;;12.93;58.05
26657;BME280;14279;50.010;8.260;2023-04-19T08:07:46;101090.78;;;12.77;58.48
26657;BME280;14279;50.010;8.260;2023-04-19T08:10:11;101081.00;;;13.20;57.76
26657;BME280;14279;50.010;8.260;2023-04-19T08:12:37;101084.34;;;13.24;57.03
26657;BME280;14279;50.010;8.260;2023-04-19T08:15:03;101090.53;;;13.21;56.95
26657;BME280;14279;50.010;8.260;2023-04-19T08:17:28;101092.59;;;13.15;57.59
26657;BME280;14279;50.010;8.260;2023-04-19T08:19:53;101089.25;;;12.92;57.84
26657;BME280;14279;50.010;8.260;2023-04-19T08:22:19;101085.03;;;13.28;57.33
26657;BME280;14279;50.010;8.260;2023-04-19T08:24:47;101088.81;;;13.41;56.96
26657;BME280;14279;50.010;8.260;2023-04-19T08:27:13;101084.22;;;13.46;56.45
26657;BME280;14279;50.010;8.260;2023-04-19T08:29:38;101075.63;;;13.62;55.77
26657;BME280;14279;50.010;8.260;2023-04-19T08:32:04;101069.22;;;13.50;55.30
26657;BME280;14279;50.010;8.260;2023-04-19T08:34:30;101069.13;;;13.32;55.35
26657;BME280;14279;50.010;8.260;2023-04-19T08:36:55;101079.16;;;13.22;54.77
26657;BME280;14279;50.010;8.260;2023-04-19T08:39:20;101070.03;;;13.12;55.42
26657;BME280;14279;50.010;8.260;2023-04-19T08:41:46;101068.47;;;13.48;54.95
26657;BME280;14279;50.010;8.260;2023-04-19T08:44:13;101065.81;;;13.67;54.80
26657;BME280;14279;50.010;8.260;2023-04-19T08:46:39;101072.47;;;13.92;53.52
26657;BME280;14279;50.010;8.260;2023-04-19T08:49:06;101061.84;;;14.12;53.11
26657;BME280;14279;50.010;8.260;2023-04-19T08:51:32;101074.09;;;14.30;52.94
26657;BME280;14279;50.010;8.260;2023-04-19T08:53:59;101067.09;;;14.48;52.41
26657;BME280;14279;50.010;8.260;2023-04-19T08:56:25;101067.19;;;14.11;53.34
26657;BME280;14279;50.010;8.260;2023-04-19T08:58:50;101057.75;;;14.24;52.80
26657;BME280;14279;50.010;8.260;2023-04-19T09:01:16;101058.41;;;14.12;52.78
26657;BME280;14279;50.010;8.260;2023-04-19T09:03:44;101049.38;;;14.00;52.89
26657;BME280;14279;50.010;8.260;2023-04-19T09:06:10;101054.00;;;14.48;52.35
26657;BME280;14279;50.010;8.260;2023-04-19T09:08:36;101053.91;;;14.49;51.99
26657;BME280;14279;50.010;8.260;2023-04-19T09:11:02;101053.06;;;14.49;51.47
26657;BME280;14279;50.010;8.260;2023-04-19T09:13:28;101051.97;;;14.53;51.22
26657;BME280;14279;50.010;8.260;2023-04-19T09:15:54;101053.88;;;14.67;50.88
26657;BME280;14279;50.010;8.260;2023-04-19T09:18:22;101051.59;;;14.94;50.00
26657;BME280;14279;50.010;8.260;2023-04-19T09:20:49;101047.72;;;15.01;50.05
26657;BME280;14279;50.010;8.260;2023-04-19T09:23:22;101042.31;;;15.21;49.68
26657;BME280;14279;50.010;8.260;2023-04-19T09:25:56;101034.97;;;15.27;50.32
26657;BME280;14279;50.010;8.260;2023-04-19T09:28:22;101036.25;;;15.36;49.62
26657;BME280;14279;50.010;8.260;2023-04-19T09:30:48;101030.06;;;15.37;49.85
26657;BME280;14279;50.010;8.260;2023-04-19T09:33:30;101028.00;;;15.58;49.80
26657;BME280;14279;50.010;8.260;2023-04-19T09:35:58;101029.38;;;15.80;49.43
26657;BME280;14279;50.010;8.260;2023-04-19T09:38:24;101020.09;;;15.90;48.80
26657;BME280;14279;50.010;8.260;2023-04-19T09:40:49;101029.16;;;15.69;49.31
26657;BME280;14279;50.010;8.260;2023-04-19T09:43:24;101026.38;;;15.72;49.40
26657;BME280;14279;50.010;8.260;2023-04-19T09:45:52;101021.91;;;16.04;48.78
26657;BME280;14279;50.010;8.260;2023-04-19T09:48:17;101018.00;;;16.41;47.65
26657;BME280;14279;50.010;8.260;2023-04-19T09:50:55;101015.13;;;16.00;46.45
26657;BME280;14279;50.010;8.260;2023-04-19T09:53:22;101019.31;;;15.26;46.90
26657;BME280;14279;50.010;8.260;2023-04-19T09:55:47;101006.47;;;15.21;46.54
26657;BME280;14279;50.010;8.260;2023-04-19T09:58:14;101005.94;;;14.82;47.07
26657;BME280;14279;50.010;8.260;2023-04-19T10:00:40;101003.56;;;14.60;47.45
26657;BME280;14279;50.010;8.260;2023-04-19T10:03:08;101004.38;;;14.45;47.72
26657;BME280;14279;50.010;8.260;2023-04-19T10:05:36;101003.53;;;14.44;47.74
26657;BME280;14279;50.010;8.260;2023-04-19T10:08:05;101005.22;;;14.45;47.21
26657;BME280;14279;50.010;8.260;2023-04-19T10:10:31;101000.69;;;14.82;46.68
26657;BME280;14279;50.010;8.260;2023-04-19T10:12:58;100989.97;;;15.19;46.33
26657;BME280;14279;50.010;8.260;2023-04-19T10:15:24;100989.69;;;15.24;46.00
26657;BME280;14279;50.010;8.260;2023-04-19T10:17:51;100996.28;;;14.83;46.31
26657;BME280;14279;50.010;8.260;2023-04-19T10:20:23;100989.16;;;14.85;46.59
26657;BME280;14279;50.010;8.260;2023-04-19T10:22:49;100982.84;;;14.89;46.78
26657;BME280;14279;50.010;8.260;2023-04-19T10:25:15;100976.75;;;15.21;46.04
26657;BME280;14279;50.010;8.260;2023-04-19T10:27:42;100983.94;;;14.85;45.78
26657;BME280;14279;50.010;8.260;2023-04-19T10:30:21;100986.56;;;14.51;46.88
26657;BME280;14279;50.010;8.260;2023-04-19T10:32:55;100977.69;;;14.71;47.48
26657;BME280;14279;50.010;8.260;2023-04-19T10:35:26;100972.78;;;14.81;45.58
26657;BME280;14279;50.010;8.260;2023-04-19T10:38:13;100974.75;;;14.60;46.32
26657;BME280;14279;50.010;8.260;2023-04-19T10:40:53;100966.44;;;14.85;45.30
26657;BME280;14279;50.010;8.260;2023-04-19T10:43:24;100970.94;;;14.99;44.79
26657;BME280;14279;50.010;8.260;2023-04-19T10:45:50;100971.66;;;15.17;44.77
26657;BME280;14279;50.010;8.260;2023-04-19T10:51:16;100962.47;;;15.10;45.57
26657;BME280;14279;50.010;8.260;2023-04-19T10:56:55;100966.34;;;14.71;46.18
26657;BME280;14279;50.010;8.260;2023-04-19T11:04:14;100949.44;;;14.09;45.35
26657;BME280;14279;50.010;8.260;2023-04-19T11:09:28;100963.09;;;14.66;44.03
26657;BME280;14279;50.010;8.260;2023-04-19T11:14:25;100945.34;;;14.55;44.75
26657;BME280;14279;50.010;8.260;2023-04-19T11:16:51;100952.47;;;14.35;44.24
26657;BME280;14279;50.010;8.260;2023-04-19T11:19:19;100938.19;;;14.75;43.44
26657;BME280;14279;50.010;8.260;2023-04-19T11:21:45;100950.91;;;14.49;43.65
26657;BME280;14279;50.010;8.260;2023-04-19T11:24:12;100955.44;;;14.45;43.76
26657;BME280;14279;50.010;8.260;2023-04-19T11:26:41;100950.03;;;14.82;43.19
26657;BME280;14279;50.010;8.260;2023-04-19T11:29:06;100945.50;;;14.52;42.96
26657;BME280;14279;50.010;8.260;2023-04-19T11:31:32;100935.59;;;14.75;42.80
26657;BME280;14279;50.010;8.260;2023-04-19T11:33:58;100938.91;;;14.61;42.61
26657;BME280;14279;50.010;8.260;2023-04-19T11:36:26;100936.56;;;15.20;41.14
26657;BME280;14279;50.010;8.260;2023-04-19T11:38:52;100930.78;;;15.29;41.38
26657;BME280;14279;50.010;8.260;2023-04-19T11:41:17;100921.00;;;15.33;40.71
26657;BME280;14279;50.010;8.260;2023-04-19T11:43:43;100921.13;;;14.99;40.63
26657;BME280;14279;50.010;8.260;2023-04-19T11:46:11;100915.91;;;15.30;40.12
26657;BME280;14279;50.010;8.260;2023-04-19T11:48:38;100904.22;;;15.36;39.19
26657;BME280;14279;50.010;8.260;2023-04-19T11:51:03;100909.72;;;15.00;39.31
26657;BME280;14279;50.010;8.260;2023-04-19T11:53:31;100896.19;;;14.92;39.52
26657;BME280;14279;50.010;8.260;2023-04-19T11:56:03;100889.81;;;15.12;39.46
26657;BME280;14279;50.010;8.260;2023-04-19T11:58:35;100889.28;;;15.22;39.21
26657;BME280;14279;50.010;8.260;2023-04-19T12:01:10;100871.81;;;15.06;38.64
26657;BME280;14279;50.010;8.260;2023-04-19T12:03:44;100888.28;;;15.08;38.42
26657;BME280;14279;50.010;8.260;2023-04-19T12:06:12;100881.28;;;14.61;37.61
26657;BME280;14279;50.010;8.260;2023-04-19T12:08:41;100886.19;;;14.51;37.00
26657;BME280;14279;50.010;8.260;2023-04-19T12:11:07;100875.97;;;14.94;36.97
26657;BME280;14279;50.010;8.260;2023-04-19T12:13:32;100881.16;;;14.80;37.01
26657;BME280;14279;50.010;8.260;2023-04-19T12:15:58;100868.06;;;14.62;36.57
26657;BME280;14279;50.010;8.260;2023-04-19T12:18:24;100871.16;;;14.70;37.17
26657;BME280;14279;50.010;8.260;2023-04-19T12:20:50;100874.78;;;15.30;35.73
26657;BME280;14279;50.010;8.260;2023-04-19T12:23:17;100863.97;;;14.90;37.00
26657;BME280;14279;50.010;8.260;2023-04-19T12:25:45;100865.16;;;15.31;36.88
26657;BME280;14279;50.010;8.260;2023-04-19T12:28:11;100855.78;;;15.11;36.78
26657;BME280;14279;50.010;8.260;2023-04-19T12:30:37;100868.91;;;15.41;36.11
26657;BME280;14279;50.010;8.260;2023-04-19T12:33:03;100857.63;;;15.25;36.70
26657;BME280;14279;50.010;8.260;2023-04-19T12:35:29;100847.00;;;15.87;36.09
26657;BME280;14279;50.010;8.260;2023-04-19T12:37:56;100853.19;;;15.86;36.34
26657;BME280;14279;50.010;8.260;2023-04-19T12:40:22;100854.66;;;16.05;36.20
26657;BME280;14279;50.010;8.260;2023-04-19T12:42:48;100846.91;;;16.03;35.83
26657;BME280;14279;50.010;8.260;2023-04-19T12:45:13;100842.28;;;16.07;35.75
26657;BME280;14279;50.010;8.260;2023-04-19T12:47:39;100850.78;;;15.67;35.76
26657;BME280;14279;50.010;8.260;2023-04-19T12:50:06;100858.44;;;16.15;34.82
26657;BME280;14279;50.010;8.260;2023-04-19T12:52:32;100836.78;;;16.12;35.04
26657;BME280;14279;50.010;8.260;2023-04-19T12:54:57;100843.00;;;15.80;34.35
26657;BME280;14279;50.010;8.260;2023-04-19T12:57:22;100842.81;;;15.83;33.64
26657;BME280;14279;50.010;8.260;2023-04-19T12:59:48;100829.25;;;16.34;33.30
26657;BME280;14279;50.010;8.260;2023-04-19T13:02:13;100829.63;;;16.28;33.38
26657;BME280;14279;50.010;8.260;2023-04-19T13:04:38;100823.50;;;15.84;32.67
26657;BME280;14279;50.010;8.260;2023-04-19T13:07:04;100829.91;;;16.09;32.86
26657;BME280;14279;50.010;8.260;2023-04-19T13:09:29;100836.06;;;16.79;32.19
26657;BME280;14279;50.010;8.260;2023-04-19T13:11:54;100824.63;;;16.38;33.70
26657;BME280;14279;50.010;8.260;2023-04-19T13:14:20;100823.22;;;16.32;34.12
26657;BME280;14279;50.010;8.260;2023-04-19T13:16:45;100821.31;;;15.92;33.38
26657;BME280;14279;50.010;8.260;2023-04-19T13:19:11;100821.75;;;16.14;32.44
26657;BME280;14279;50.010;8.260;2023-04-19T13:21:36;100808.97;;;16.64;31.90